createdAt,value
2018-03-24T00:00:51.032Z,17.67
2018-03-24T00:03:18.649Z,17.13
2018-03-24T00:05:46.113Z,18.50
2018-03-24T00:08:13.653Z,17.90
2018-03-24T00:10:41.139Z,18.77
2018-03-24T00:13:09.039Z,17.47
2018-03-24T00:15:36.461Z,17.00
2018-03-24T00:18:03.918Z,17.30
2018-03-24T00:20:31.550Z,16.43
2018-03-24T00:22:59.172Z,17.55
2018-03-24T00:25:26.679Z,17.12
2018-03-24T00:27:54.147Z,16.90
2018-03-24T00:30:21.616Z,15.93
2018-03-24T00:32:49.265Z,17.48
2018-03-24T00:35:16.747Z,18.30
2018-03-24T00:37:44.206Z,18.52
2018-03-24T00:40:11.677Z,20.17
2018-03-24T00:42:39.154Z,21.60
2018-03-24T00:45:06.615Z,21.87
2018-03-24T00:47:34.155Z,23.48
2018-03-24T00:50:01.600Z,23.23
2018-03-24T00:52:29.148Z,26.27
2018-03-24T00:54:56.584Z,26.45
2018-03-24T00:57:24.055Z,25.40
2018-03-24T00:59:51.487Z,25.30
2018-03-24T01:02:18.928Z,24.48
2018-03-24T01:04:46.485Z,25.30
2018-03-24T01:07:14.030Z,22.30
2018-03-24T01:09:41.499Z,23.77
2018-03-24T01:12:08.960Z,21.80
2018-03-24T01:14:36.442Z,20.67
2018-03-24T01:17:03.891Z,21.33
2018-03-24T01:19:31.968Z,20.98
2018-03-24T01:21:59.433Z,20.50
2018-03-24T01:24:26.910Z,20.42
2018-03-24T01:26:54.463Z,19.85
2018-03-24T01:29:22.183Z,20.70
2018-03-24T01:31:49.677Z,18.87
2018-03-24T01:34:17.250Z,18.35
2018-03-24T01:36:44.760Z,17.77
2018-03-24T01:39:12.513Z,17.75
2018-03-24T01:41:39.954Z,17.08
2018-03-24T01:44:07.416Z,17.05
2018-03-24T01:46:34.872Z,16.90
2018-03-24T01:49:02.350Z,18.40
2018-03-24T01:51:30.187Z,18.15
2018-03-24T01:53:57.719Z,16.98
2018-03-24T01:56:25.164Z,16.45
2018-03-24T01:58:52.629Z,17.83
2018-03-24T02:01:20.731Z,17.40
2018-03-24T02:03:48.264Z,16.55
2018-03-24T02:06:15.793Z,16.75
2018-03-24T02:08:43.266Z,16.80
2018-03-24T02:11:10.723Z,15.80
2018-03-24T02:13:38.197Z,17.30
2018-03-24T02:16:05.622Z,17.85
2018-03-24T02:18:33.091Z,17.20
2018-03-24T02:21:00.548Z,17.50
2018-03-24T02:23:28.445Z,16.45
2018-03-24T02:25:55.904Z,17.55
2018-03-24T02:28:23.344Z,16.27
2018-03-24T02:30:50.913Z,16.75
2018-03-24T02:33:18.692Z,16.10
2018-03-24T02:35:46.160Z,16.02
2018-03-24T02:38:13.681Z,17.12
2018-03-24T02:40:41.148Z,17.83
2018-03-24T02:43:08.598Z,16.73
2018-03-24T02:45:36.285Z,16.27
2018-03-24T02:48:03.750Z,17.83
2018-03-24T02:50:31.271Z,17.83
2018-03-24T02:53:00.765Z,17.05
2018-03-24T02:55:28.208Z,17.62
2018-03-24T02:57:55.717Z,15.88
2018-03-24T03:00:23.191Z,17.48
2018-03-24T03:02:50.652Z,17.92
2018-03-24T03:05:18.201Z,17.40
2018-03-24T03:07:45.638Z,17.30
2018-03-24T03:10:13.108Z,17.10
2018-03-24T03:12:40.533Z,16.87
2018-03-24T03:15:07.989Z,17.35
2018-03-24T03:17:35.447Z,16.25
2018-03-24T03:20:02.916Z,16.85
2018-03-24T03:22:30.384Z,18.10
2018-03-24T03:24:57.874Z,18.00
2018-03-24T03:27:25.347Z,17.40
2018-03-24T03:29:52.789Z,16.35
2018-03-24T03:32:20.250Z,18.48
2018-03-24T03:34:47.690Z,17.65
2018-03-24T03:37:15.159Z,18.45
2018-03-24T03:39:42.615Z,18.15
2018-03-24T03:42:10.054Z,17.80
2018-03-24T03:44:37.483Z,17.80
2018-03-24T03:47:04.999Z,18.08
2018-03-24T03:49:33.100Z,20.75
2018-03-24T03:52:00.597Z,19.23
2018-03-24T03:54:28.700Z,18.00
2018-03-24T03:56:56.170Z,18.83
2018-03-24T03:59:23.646Z,18.80
2018-03-24T04:01:51.084Z,18.35
2018-03-24T04:04:18.548Z,17.95
2018-03-24T04:06:45.978Z,18.27
2018-03-24T04:09:13.435Z,16.75
2018-03-24T04:11:40.996Z,18.10
2018-03-24T04:14:08.446Z,19.17
2018-03-24T04:16:36.652Z,20.40
2018-03-24T04:19:04.111Z,17.85
2018-03-24T04:21:31.556Z,20.20
2018-03-24T04:23:58.986Z,19.75
2018-03-24T04:26:26.494Z,18.35
2018-03-24T04:28:53.957Z,18.90
2018-03-24T04:31:21.418Z,18.77
2018-03-24T04:33:48.862Z,18.42
2018-03-24T04:36:16.400Z,19.27
2018-03-24T04:38:43.858Z,19.90
2018-03-24T04:41:11.317Z,21.40
2018-03-24T04:43:38.785Z,20.12
2018-03-24T04:46:06.244Z,20.10
2018-03-24T04:48:33.686Z,20.40
2018-03-24T04:51:01.143Z,21.27
2018-03-24T04:53:28.604Z,20.62
2018-03-24T04:55:56.050Z,19.87
2018-03-24T04:58:23.518Z,19.15
2018-03-24T05:00:51.074Z,19.95
2018-03-24T05:03:18.523Z,19.25
2018-03-24T05:05:45.988Z,18.87
2018-03-24T05:08:13.407Z,19.55
2018-03-24T05:10:41.348Z,18.62
2018-03-24T05:13:08.889Z,21.67
2018-03-24T05:15:36.538Z,20.30
2018-03-24T05:18:04.059Z,22.48
2018-03-24T05:20:31.644Z,22.08
2018-03-24T05:22:59.334Z,22.02
2018-03-24T05:25:26.774Z,22.02
2018-03-24T05:27:54.232Z,21.02
2018-03-24T05:30:22.414Z,21.65
2018-03-24T05:32:49.858Z,19.80
2018-03-24T05:35:18.136Z,19.37
2018-03-24T05:37:45.793Z,19.77
2018-03-24T05:40:13.365Z,20.50
2018-03-24T05:42:41.011Z,20.00
2018-03-24T05:45:08.508Z,21.52
2018-03-24T05:47:35.933Z,20.05
2018-03-24T05:50:03.476Z,21.20
2018-03-24T05:52:30.911Z,20.85
2018-03-24T05:54:58.376Z,20.30
2018-03-24T05:57:25.817Z,20.77
2018-03-24T05:59:53.284Z,23.30
2018-03-24T06:02:20.773Z,21.05
2018-03-24T06:04:48.233Z,22.95
2018-03-24T06:07:15.678Z,26.90
2018-03-24T06:09:43.198Z,32.80
2018-03-24T06:12:10.740Z,37.58
2018-03-24T06:14:38.200Z,26.60
2018-03-24T06:17:05.718Z,24.37
2018-03-24T06:19:33.168Z,23.30
2018-03-24T06:22:00.616Z,22.67
2018-03-24T06:24:29.110Z,24.10
2018-03-24T06:26:56.617Z,24.23
2018-03-24T06:29:24.107Z,24.43
2018-03-24T06:31:52.088Z,25.30
2018-03-24T06:34:19.526Z,25.70
2018-03-24T06:36:47.712Z,26.80
2018-03-24T06:39:15.249Z,26.47
2018-03-24T06:41:43.247Z,24.90
2018-03-24T06:44:10.672Z,25.47
2018-03-24T06:46:38.132Z,26.70
2018-03-24T06:49:05.594Z,28.10
2018-03-24T06:51:33.031Z,25.80
2018-03-24T06:54:00.501Z,26.90
2018-03-24T06:56:27.941Z,27.70
2018-03-24T06:58:55.418Z,26.00
2018-03-24T07:01:22.843Z,25.97
2018-03-24T07:03:50.386Z,29.17
2018-03-24T07:06:17.946Z,26.47
2018-03-24T07:08:45.708Z,28.73
2018-03-24T07:11:13.377Z,28.50
2018-03-24T07:13:40.851Z,27.30
2018-03-24T07:16:08.375Z,27.23
2018-03-24T07:18:35.954Z,27.87
2018-03-24T07:21:03.434Z,27.17
2018-03-24T07:23:30.873Z,29.23
2018-03-24T07:25:58.337Z,27.50
2018-03-24T07:28:25.787Z,29.20
2018-03-24T07:30:53.253Z,29.47
2018-03-24T07:33:20.701Z,28.80
2018-03-24T07:35:48.204Z,28.67
2018-03-24T07:38:15.684Z,27.40
2018-03-24T07:40:43.298Z,28.17
2018-03-24T07:43:10.786Z,27.90
2018-03-24T07:45:38.280Z,28.13
2018-03-24T07:48:06.476Z,28.33
2018-03-24T07:50:34.034Z,26.70
2018-03-24T07:53:01.582Z,26.60
2018-03-24T07:55:29.028Z,28.10
2018-03-24T07:57:56.561Z,25.77
2018-03-24T08:00:24.107Z,27.27
2018-03-24T08:02:51.701Z,25.17
2018-03-24T08:05:19.298Z,25.80
2018-03-24T08:07:46.752Z,25.30
2018-03-24T08:10:14.425Z,27.57
2018-03-24T08:12:41.992Z,26.77
2018-03-24T08:15:13.954Z,25.73
2018-03-24T08:17:41.411Z,28.27
2018-03-24T08:20:08.889Z,25.20
2018-03-24T08:22:37.209Z,26.63
2018-03-24T08:25:05.234Z,25.77
2018-03-24T08:27:32.683Z,27.13
2018-03-24T08:30:00.137Z,26.00
2018-03-24T08:32:27.591Z,27.00
2018-03-24T08:34:55.228Z,24.70
2018-03-24T08:37:23.635Z,25.37
2018-03-24T08:39:51.105Z,24.40
2018-03-24T08:42:18.555Z,24.97
2018-03-24T08:44:46.699Z,24.77
2018-03-24T08:47:14.136Z,22.97
2018-03-24T08:49:41.695Z,23.53
2018-03-24T08:52:09.251Z,23.93
2018-03-24T08:54:36.737Z,25.00
2018-03-24T08:57:04.213Z,25.40
2018-03-24T08:59:31.727Z,24.30
2018-03-24T09:01:59.852Z,22.50
2018-03-24T09:04:27.281Z,22.60
2018-03-24T09:06:54.758Z,20.43
2018-03-24T09:09:22.183Z,20.27
2018-03-24T09:11:49.632Z,13.80
2018-03-24T09:14:17.102Z,21.30
2018-03-24T09:16:44.549Z,18.13
2018-03-24T09:19:12.012Z,19.30
2018-03-24T09:21:39.461Z,16.30
2018-03-24T09:24:06.986Z,12.60
2018-03-24T09:26:34.435Z,12.43
2018-03-24T09:29:01.912Z,13.17
2018-03-24T09:31:29.345Z,12.93
2018-03-24T09:33:57.554Z,12.57
2018-03-24T09:36:25.940Z,12.60
2018-03-24T09:38:54.527Z,11.80
2018-03-24T09:41:22.798Z,11.83
2018-03-24T09:43:50.376Z,12.23
2018-03-24T09:46:17.953Z,12.60
2018-03-24T09:48:45.466Z,13.10
2018-03-24T09:51:12.969Z,10.00
2018-03-24T09:53:40.405Z,9.07
2018-03-24T09:56:07.853Z,11.10
2018-03-24T09:58:35.330Z,11.00
2018-03-24T10:01:02.784Z,10.03
2018-03-24T10:03:30.213Z,11.20
2018-03-24T10:05:57.690Z,10.80
2018-03-24T10:08:25.308Z,10.60
2018-03-24T10:10:52.828Z,10.60
2018-03-24T10:13:20.268Z,10.50
2018-03-24T10:15:47.715Z,11.50
2018-03-24T10:18:15.163Z,10.63
2018-03-24T10:20:58.289Z,10.60
2018-03-24T10:23:40.414Z,14.90
2018-03-24T10:26:07.881Z,11.03
2018-03-24T10:28:35.344Z,10.37
2018-03-24T10:31:02.864Z,9.53
2018-03-24T10:33:30.344Z,10.27
2018-03-24T10:35:57.829Z,10.47
2018-03-24T10:38:25.257Z,9.83
2018-03-24T10:40:52.967Z,10.87
2018-03-24T10:43:25.989Z,9.90
2018-03-24T10:45:53.560Z,10.33
2018-03-24T10:48:20.989Z,10.30
2018-03-24T10:50:48.480Z,11.00
2018-03-24T10:53:16.099Z,10.27
2018-03-24T10:55:44.564Z,9.70
2018-03-24T10:58:12.151Z,10.37
2018-03-24T11:00:40.064Z,10.80
2018-03-24T11:03:07.525Z,10.33
2018-03-24T11:05:34.966Z,9.90
2018-03-24T11:08:02.448Z,10.30
2018-03-24T11:10:29.931Z,11.67
2018-03-24T11:12:57.382Z,10.03
2018-03-24T11:15:25.560Z,10.07
2018-03-24T11:17:53.028Z,11.57
2018-03-24T11:20:20.501Z,11.77
2018-03-24T11:22:48.355Z,12.03
2018-03-24T11:25:15.949Z,11.60
2018-03-24T11:27:43.661Z,11.77
2018-03-24T11:30:11.453Z,11.40
2018-03-24T11:32:38.889Z,12.17
2018-03-24T11:35:07.804Z,10.90
2018-03-24T11:37:35.236Z,12.00
2018-03-24T11:40:03.042Z,11.97
2018-03-24T11:42:30.480Z,11.57
2018-03-24T11:44:58.667Z,11.80
2018-03-24T11:47:26.141Z,12.20
2018-03-24T11:49:54.159Z,11.60
2018-03-24T11:52:21.601Z,12.10
2018-03-24T11:54:49.509Z,12.20
2018-03-24T11:57:17.967Z,11.30
2018-03-24T11:59:45.426Z,13.10
2018-03-24T12:02:12.921Z,12.50
2018-03-24T12:04:40.452Z,11.20
2018-03-24T12:07:07.936Z,13.40
2018-03-24T12:09:35.391Z,11.37
2018-03-24T12:12:02.837Z,12.67
2018-03-24T12:14:30.304Z,13.13
2018-03-24T12:16:57.782Z,14.17
2018-03-24T12:19:25.225Z,12.87
2018-03-24T12:21:53.162Z,12.93
2018-03-24T12:24:21.038Z,12.20
2018-03-24T12:26:49.088Z,12.40
2018-03-24T12:29:16.525Z,13.60
2018-03-24T12:31:43.993Z,13.60
2018-03-24T12:34:11.504Z,11.77
2018-03-24T12:36:39.528Z,12.70
2018-03-24T12:39:06.965Z,13.60
2018-03-24T12:41:34.467Z,13.50
2018-03-24T12:44:02.004Z,12.00
2018-03-24T12:46:29.514Z,12.97
2018-03-24T12:48:57.117Z,13.83
2018-03-24T12:51:24.673Z,13.67
2018-03-24T12:53:52.105Z,13.37
2018-03-24T12:56:20.009Z,12.50
2018-03-24T12:58:47.481Z,13.00
2018-03-24T13:01:14.952Z,12.30
2018-03-24T13:03:42.790Z,12.30
2018-03-24T13:06:10.239Z,12.63
2018-03-24T13:08:38.004Z,12.97
2018-03-24T13:11:05.460Z,12.90
2018-03-24T13:13:32.923Z,14.07
2018-03-24T13:16:00.404Z,14.60
2018-03-24T13:18:27.885Z,13.40
2018-03-24T13:20:55.742Z,14.00
2018-03-24T13:23:23.227Z,13.87
2018-03-24T13:25:50.684Z,12.50
2018-03-24T13:28:18.209Z,13.60
2018-03-24T13:30:45.738Z,13.80
2018-03-24T13:33:13.204Z,14.40
2018-03-24T13:35:40.677Z,12.97
2018-03-24T13:38:08.136Z,13.00
2018-03-24T13:40:35.635Z,13.30
2018-03-24T13:43:03.089Z,14.17
2018-03-24T13:45:30.557Z,13.20
2018-03-24T13:47:58.007Z,13.27
2018-03-24T13:50:27.267Z,13.43
2018-03-24T13:52:54.705Z,13.40
2018-03-24T13:55:22.284Z,14.57
2018-03-24T13:57:49.771Z,13.33
2018-03-24T14:00:17.252Z,12.67
2018-03-24T14:02:44.778Z,13.40
2018-03-24T14:05:12.227Z,14.20
2018-03-24T14:07:39.709Z,13.47
2018-03-24T14:10:07.197Z,14.30
2018-03-24T14:12:34.668Z,13.93
2018-03-24T14:15:02.453Z,13.83
2018-03-24T14:17:30.193Z,14.07
2018-03-24T14:19:57.722Z,14.33
2018-03-24T14:22:25.645Z,14.13
2018-03-24T14:24:53.097Z,13.70
2018-03-24T14:27:20.637Z,15.83
2018-03-24T14:29:48.138Z,15.30
2018-03-24T14:32:15.700Z,14.53
2018-03-24T14:34:43.158Z,14.70
2018-03-24T14:37:10.626Z,14.77
2018-03-24T14:39:38.140Z,14.93
2018-03-24T14:42:06.611Z,14.20
2018-03-24T14:44:34.748Z,14.83
2018-03-24T14:47:02.275Z,14.77
2018-03-24T14:49:29.824Z,14.30
2018-03-24T14:51:57.664Z,12.90
2018-03-24T14:54:25.182Z,14.80
2018-03-24T14:56:53.387Z,14.43
2018-03-24T14:59:20.900Z,14.73
2018-03-24T15:01:48.360Z,14.60
2018-03-24T15:04:15.830Z,13.70
2018-03-24T15:06:44.205Z,14.47
2018-03-24T15:09:11.665Z,13.47
2018-03-24T15:11:40.012Z,15.10
2018-03-24T15:14:07.731Z,14.17
2018-03-24T15:16:35.354Z,14.07
2018-03-24T15:19:02.972Z,13.57
2018-03-24T15:21:31.300Z,14.60
2018-03-24T15:23:58.827Z,14.03
2018-03-24T15:26:26.309Z,14.43
2018-03-24T15:29:05.655Z,13.63
2018-03-24T15:31:49.216Z,18.47
2018-03-24T15:34:28.642Z,12.67
2018-03-24T15:36:56.104Z,13.00
2018-03-24T15:39:23.572Z,14.73
2018-03-24T15:41:51.437Z,14.77
2018-03-24T15:44:19.295Z,12.20
2018-03-24T15:46:46.808Z,13.13
2018-03-24T15:49:14.401Z,14.00
2018-03-24T15:51:42.067Z,13.60
2018-03-24T15:54:10.015Z,13.30
2018-03-24T15:56:38.028Z,14.10
2018-03-24T15:59:05.598Z,12.83
2018-03-24T16:01:33.747Z,12.07
2018-03-24T16:04:01.149Z,12.70
2018-03-24T16:06:28.651Z,13.53
2018-03-24T16:08:56.207Z,12.40
2018-03-24T16:11:23.753Z,12.27
2018-03-24T16:13:51.189Z,11.93
2018-03-24T16:16:19.017Z,12.30
2018-03-24T16:18:46.777Z,12.13
2018-03-24T16:21:14.395Z,11.50
2018-03-24T16:23:41.933Z,12.10
2018-03-24T16:26:10.137Z,11.07
2018-03-24T16:28:37.746Z,11.73
2018-03-24T16:31:09.173Z,10.93
2018-03-24T16:33:36.677Z,12.33
2018-03-24T16:36:04.555Z,11.90
2018-03-24T16:38:32.006Z,11.90
2018-03-24T16:40:59.678Z,11.60
2018-03-24T16:43:27.688Z,12.70
2018-03-24T16:45:55.550Z,11.07
2018-03-24T16:48:23.448Z,11.53
2018-03-24T16:50:51.379Z,11.70
2018-03-24T16:53:19.386Z,13.00
2018-03-24T16:55:47.206Z,12.10
2018-03-24T16:58:15.117Z,11.97
2018-03-24T17:00:43.147Z,11.10
2018-03-24T17:03:11.123Z,12.47
2018-03-24T17:05:38.858Z,11.70
2018-03-24T17:08:07.047Z,11.90
2018-03-24T17:10:35.363Z,10.43
2018-03-24T17:13:03.362Z,12.07
2018-03-24T17:15:31.314Z,11.33
2018-03-24T17:17:58.863Z,11.07
2018-03-24T17:20:26.495Z,11.70
2018-03-24T17:22:54.120Z,11.10
2018-03-24T17:25:22.048Z,11.70
2018-03-24T17:27:49.506Z,11.20
2018-03-24T17:30:17.478Z,11.03
2018-03-24T17:32:44.905Z,13.20
2018-03-24T17:35:12.354Z,12.13
2018-03-24T17:37:39.842Z,11.77
2018-03-24T17:40:07.455Z,12.20
2018-03-24T17:42:35.982Z,12.53
2018-03-24T17:45:04.107Z,12.83
2018-03-24T17:47:31.578Z,11.53
2018-03-24T17:49:59.484Z,25.07
2018-03-24T17:52:27.010Z,11.80
2018-03-24T17:54:54.516Z,11.97
2018-03-24T17:57:21.976Z,11.30
2018-03-24T17:59:49.933Z,12.37
2018-03-24T18:02:17.638Z,12.23
2018-03-24T18:04:45.174Z,12.40
2018-03-24T18:07:12.749Z,12.80
2018-03-24T18:09:40.286Z,13.53
2018-03-24T18:12:07.912Z,13.17
2018-03-24T18:14:36.097Z,12.77
2018-03-24T18:17:03.535Z,13.30
2018-03-24T18:19:31.779Z,14.20
2018-03-24T18:21:59.345Z,12.87
2018-03-24T18:24:27.061Z,13.70
2018-03-24T18:26:54.573Z,13.47
2018-03-24T18:29:22.079Z,14.33
2018-03-24T18:31:49.572Z,14.73
2018-03-24T18:34:17.198Z,14.37
2018-03-24T18:36:45.180Z,14.07
2018-03-24T18:39:12.722Z,13.53
2018-03-24T18:41:41.195Z,15.40
2018-03-24T18:44:08.654Z,13.73
2018-03-24T18:46:36.221Z,15.10
2018-03-24T18:49:03.738Z,14.60
2018-03-24T18:51:31.382Z,14.10
2018-03-24T18:54:00.639Z,14.27
2018-03-24T18:56:28.614Z,14.00
2018-03-24T18:58:56.141Z,13.90
2018-03-24T19:01:23.788Z,15.13
2018-03-24T19:03:51.254Z,14.63
2018-03-24T19:06:18.826Z,15.00
2018-03-24T19:08:46.293Z,15.20
2018-03-24T19:11:14.073Z,14.80
2018-03-24T19:13:41.536Z,14.50
2018-03-24T19:16:09.133Z,14.30
2018-03-24T19:18:36.764Z,14.73
2018-03-24T19:21:04.653Z,14.90
2018-03-24T19:23:32.330Z,15.20
2018-03-24T19:25:59.997Z,16.23
2018-03-24T19:28:27.615Z,16.97
2018-03-24T19:30:55.408Z,15.50
2018-03-24T19:33:22.880Z,15.53
2018-03-24T19:35:50.370Z,17.13
2018-03-24T19:38:17.881Z,15.17
2018-03-24T19:40:48.654Z,17.40
2018-03-24T19:43:16.102Z,15.90
2018-03-24T19:45:43.786Z,16.23
2018-03-24T19:48:11.273Z,15.90
2018-03-24T19:50:38.936Z,15.17
2018-03-24T19:53:06.963Z,16.07
2018-03-24T19:55:34.474Z,17.60
2018-03-24T19:58:01.948Z,16.17
2018-03-24T20:00:29.383Z,15.80
2018-03-24T20:02:56.869Z,17.37
2018-03-24T20:05:24.323Z,16.23
2018-03-24T20:07:51.784Z,17.40
2018-03-24T20:10:19.632Z,17.43
2018-03-24T20:12:47.178Z,18.30
2018-03-24T20:15:14.675Z,18.37
2018-03-24T20:17:42.118Z,18.40
2018-03-24T20:20:09.585Z,18.90
2018-03-24T20:22:37.111Z,18.60
2018-03-24T20:25:04.640Z,17.90
2018-03-24T20:27:32.148Z,16.83
2018-03-24T20:29:59.593Z,17.60
2018-03-24T20:32:27.047Z,17.43
2018-03-24T20:34:54.531Z,16.97
2018-03-24T20:37:22.390Z,16.63
2018-03-24T20:39:49.844Z,17.90
2018-03-24T20:42:17.308Z,17.60
2018-03-24T20:44:44.773Z,17.40
2018-03-24T20:47:12.233Z,18.57
2018-03-24T20:49:39.691Z,17.17
2018-03-24T20:52:07.219Z,18.03
2018-03-24T20:54:34.690Z,19.67
2018-03-24T20:57:02.151Z,18.23
2018-03-24T20:59:29.616Z,17.23
2018-03-24T21:01:57.089Z,17.07
2018-03-24T21:04:24.544Z,17.77
2018-03-24T21:06:51.994Z,17.30
2018-03-24T21:09:19.465Z,17.10
2018-03-24T21:11:47.599Z,18.17
2018-03-24T21:14:15.482Z,18.53
2018-03-24T21:16:43.502Z,17.90
2018-03-24T21:19:11.549Z,18.03
2018-03-24T21:21:39.086Z,17.50
2018-03-24T21:24:06.839Z,18.57
2018-03-24T21:26:34.305Z,22.63
2018-03-24T21:29:02.483Z,25.43
2018-03-24T21:31:29.992Z,24.27
2018-03-24T21:33:57.666Z,21.70
2018-03-24T21:36:25.642Z,20.07
2018-03-24T21:38:53.679Z,20.03
2018-03-24T21:41:21.483Z,21.20
2018-03-24T21:43:49.104Z,20.00
2018-03-24T21:46:16.673Z,21.50
2018-03-24T21:48:44.172Z,22.47
2018-03-24T21:51:11.616Z,21.20
2018-03-24T21:53:39.135Z,21.67
2018-03-24T21:56:06.571Z,23.13
2018-03-24T21:58:34.075Z,20.40
2018-03-24T22:01:01.501Z,20.47
2018-03-24T22:03:29.578Z,23.20
2018-03-24T22:05:57.060Z,20.77
2018-03-24T22:08:24.503Z,21.20
2018-03-24T22:10:52.014Z,25.13
2018-03-24T22:13:19.464Z,19.83
2018-03-24T22:15:46.924Z,20.53
2018-03-24T22:18:14.373Z,21.30
2018-03-24T22:20:41.834Z,21.23
2018-03-24T22:23:09.260Z,20.10
2018-03-24T22:25:36.725Z,21.30
2018-03-24T22:28:04.146Z,20.00
2018-03-24T22:30:32.215Z,22.77
2018-03-24T22:33:00.532Z,20.07
2018-03-24T22:35:28.014Z,20.10
2018-03-24T22:37:55.469Z,21.87
2018-03-24T22:40:22.945Z,18.80
2018-03-24T22:42:50.431Z,20.00
2018-03-24T22:45:17.911Z,20.30
2018-03-24T22:47:45.335Z,20.23
2018-03-24T22:50:12.781Z,19.53
2018-03-24T22:52:40.268Z,20.60
2018-03-24T22:55:07.858Z,21.90
2018-03-24T22:57:35.337Z,21.50
2018-03-24T23:00:02.761Z,21.40
2018-03-24T23:02:30.238Z,22.30
2018-03-24T23:04:57.744Z,20.97
2018-03-24T23:07:25.216Z,19.50
2018-03-24T23:09:52.647Z,19.03
2018-03-24T23:12:20.097Z,19.10
2018-03-24T23:14:47.579Z,18.80
2018-03-24T23:17:15.069Z,20.47
2018-03-24T23:19:42.519Z,20.27
2018-03-24T23:22:10.026Z,20.43
2018-03-24T23:24:37.486Z,21.47
2018-03-24T23:27:04.913Z,20.83
2018-03-24T23:29:32.378Z,21.77
2018-03-24T23:31:59.804Z,19.60
2018-03-24T23:34:27.416Z,21.73
2018-03-24T23:36:54.871Z,20.17
2018-03-24T23:39:22.523Z,21.67
2018-03-24T23:41:50.008Z,20.42
2018-03-24T23:44:17.478Z,24.13
2018-03-24T23:46:44.927Z,22.52
2018-03-24T23:49:12.440Z,21.10
2018-03-24T23:51:39.877Z,22.10
2018-03-24T23:54:07.747Z,21.90
2018-03-24T23:56:35.225Z,24.95
2018-03-24T23:59:02.664Z,23.20
